Ophir, Oregon
Current Conditions -  °F | °C
As of 2:56 AM on Sunday 21 Dec 2014 (Local Time) from KBOK Reporting Station
Heavy Rain Heavy Rain  
Wind Chill: 14°   Ceiling: 100
Heat Index: 14°   Visibility: 0.25mi
Dew Point: 14°   Wind: 8mph
Humidity: 100%   Direction: 260°W
Pressure: 30.15"   Gusts: NA
Location:  42.56°N, 124.39°W
Report Text: KBOK 211056Z AUTO 26007KT 1/4SM +RA FG OVC001 14/14 A3015 RMK AO2 T01380138 P0014 SLP212
Loading
Personal Weather Stations






























Interactive Weather Map New forecast layout! Learn more

10-Day Weather Forecast

Advertisements
Track Severe Weather on mobile